Time;durP1;ratioP1;P1;durP2;ratioP2;P2;SDS_P1;SDS_P2;PMS_P1;PMS_P2;Temp;Humidity;BMP_temperature;BMP_pressure;BME280_temperature;BME280_humidity;BME280_pressure;Samples;Min_cycle;Max_cycle;Signal;HPM_P1;HPM_P2
2021/09/12 00:01:40;;;;;;;6.03;2.45;;;17.20;99.90;;;;;;5025071;28;20117;-91
2021/09/12 00:04:06;;;;;;;8.85;3.30;;;17.20;99.90;;;;;;5008413;28;20029;-90
2021/09/12 00:06:32;;;;;;;6.40;3.30;;;17.20;99.90;;;;;;5008721;28;20038;-89
2021/09/12 00:08:58;;;;;;;6.47;3.10;;;17.20;99.90;;;;;;5008422;28;20113;-91
2021/09/12 00:11:23;;;;;;;8.65;4.18;;;17.20;99.90;;;;;;5025037;28;20065;-90
2021/09/12 00:13:49;;;;;;;6.90;3.97;;;17.20;99.90;;;;;;5008503;28;20125;-89
2021/09/12 00:16:15;;;;;;;7.20;4.53;;;17.20;99.90;;;;;;5024682;28;20042;-91
2021/09/12 00:18:40;;;;;;;10.75;5.55;;;17.20;99.90;;;;;;5011994;28;20030;-92
2021/09/12 00:21:06;;;;;;;7.47;4.20;;;17.20;99.90;;;;;;5012206;28;20041;-90
2021/09/12 00:23:32;;;;;;;8.93;4.32;;;17.10;99.90;;;;;;5012297;28;20040;-89
2021/09/12 00:25:57;;;;;;;8.05;4.22;;;17.10;99.90;;;;;;5012176;28;20042;-90
2021/09/12 00:28:23;;;;;;;8.48;4.15;;;17.20;99.90;;;;;;5012312;28;20060;-92
2021/09/12 00:30:49;;;;;;;9.07;4.25;;;17.10;99.90;;;;;;5012125;28;20041;-92
2021/09/12 00:33:14;;;;;;;10.40;4.60;;;17.10;99.90;;;;;;5012274;28;20402;-93
2021/09/12 00:35:40;;;;;;;10.75;4.65;;;17.10;99.90;;;;;;5012064;28;20092;-92
2021/09/12 00:38:08;;;;;;;6.38;3.78;;;17.10;99.90;;;;;;5012137;28;20129;-92
2021/09/12 00:40:34;;;;;;;10.25;5.70;;;17.10;99.90;;;;;;4996355;28;20046;-91
2021/09/12 00:42:59;;;;;;;9.13;5.05;;;17.10;99.90;;;;;;5029383;28;20046;-91
2021/09/12 00:45:25;;;;;;;10.52;5.35;;;17.00;99.90;;;;;;5011668;28;20036;-94
2021/09/12 00:47:51;;;;;;;8.85;4.63;;;17.10;99.90;;;;;;5011765;28;20399;-91
2021/09/12 00:50:16;;;;;;;9.80;4.05;;;17.10;99.90;;;;;;5011726;28;20046;-92
2021/09/12 00:52:47;;;;;;;6.75;4.15;;;17.10;99.90;;;;;;5012010;28;20136;-93
2021/09/12 00:55:14;;;;;;;9.90;4.57;;;17.10;99.90;;;;;;5011778;28;20034;-93
2021/09/12 00:57:44;;;;;;;7.38;4.45;;;17.10;99.90;;;;;;5029008;28;20030;-90
2021/09/12 01:00:10;;;;;;;10.52;3.85;;;17.10;99.90;;;;;;5028026;28;20097;-92
2021/09/12 01:02:37;;;;;;;8.90;5.10;;;17.10;99.90;;;;;;5011603;28;20044;-91
2021/09/12 01:05:02;;;;;;;9.88;3.78;;;17.00;99.90;;;;;;5011692;28;20040;-91
2021/09/12 01:07:28;;;;;;;11.23;4.78;;;17.00;99.90;;;;;;5011384;28;20025;-90
2021/09/12 01:09:54;;;;;;;8.43;4.00;;;17.00;99.90;;;;;;5011360;28;20065;-91
2021/09/12 01:12:20;;;;;;;8.32;4.13;;;17.00;99.90;;;;;;5011471;28;20033;-92
2021/09/12 01:14:45;;;;;;;10.13;4.35;;;16.90;99.90;;;;;;5011340;28;20121;-90
2021/09/12 01:17:11;;;;;;;7.55;3.95;;;16.90;99.90;;;;;;5011238;28;20029;-92
2021/09/12 01:19:37;;;;;;;8.82;3.88;;;16.90;99.90;;;;;;5027322;28;20037;-92
2021/09/12 01:22:05;;;;;;;11.18;3.70;;;16.90;99.90;;;;;;5011316;28;20504;-93
2021/09/12 01:24:32;;;;;;;11.68;4.28;;;16.90;99.90;;;;;;5011237;28;20040;-92
2021/09/12 01:26:58;;;;;;;12.15;6.47;;;16.90;99.90;;;;;;5027322;28;20056;-89
2021/09/12 01:29:24;;;;;;;8.88;4.75;;;16.80;99.90;;;;;;5027055;28;20050;-92
2021/09/12 01:31:50;;;;;;;10.07;5.50;;;16.80;99.90;;;;;;5027353;28;20029;-89
2021/09/12 01:34:16;;;;;;;13.93;7.35;;;16.80;99.90;;;;;;5011096;28;20072;-90
2021/09/12 01:36:42;;;;;;;11.85;6.80;;;16.80;99.90;;;;;;5027041;28;20054;-91
2021/09/12 01:39:08;;;;;;;14.13;7.70;;;16.80;99.90;;;;;;5022984;28;20030;-91
2021/09/12 01:41:34;;;;;;;9.43;5.30;;;16.70;99.90;;;;;;4994395;28;20060;-89
2021/09/12 01:44:02;;;;;;;10.75;5.72;;;16.70;99.90;;;;;;5026928;28;20053;-91
2021/09/12 01:46:28;;;;;;;9.35;5.68;;;16.70;99.90;;;;;;5003374;28;20034;-90
2021/09/12 01:48:55;;;;;;;11.45;5.95;;;16.70;99.90;;;;;;5010763;28;20077;-88
2021/09/12 01:51:22;;;;;;;9.77;5.68;;;16.70;99.90;;;;;;5010779;28;20053;-92
2021/09/12 01:53:48;;;;;;;11.23;4.93;;;16.70;99.90;;;;;;5027230;28;20088;-90
2021/09/12 01:56:15;;;;;;;11.38;6.40;;;16.70;99.90;;;;;;5010463;28;20363;-90
2021/09/12 01:58:40;;;;;;;14.35;7.97;;;16.60;99.90;;;;;;5010378;28;20098;-92
2021/09/12 02:01:07;;;;;;;11.63;6.20;;;16.50;99.90;;;;;;5010577;28;20034;-91
2021/09/12 02:03:33;;;;;;;13.63;6.35;;;16.60;99.90;;;;;;5011110;28;20034;-87
2021/09/12 02:05:59;;;;;;;10.25;6.00;;;16.50;99.90;;;;;;5011589;28;20050;-89
2021/09/12 02:08:24;;;;;;;9.07;5.13;;;16.50;99.90;;;;;;5010675;28;20037;-90
2021/09/12 02:10:50;;;;;;;11.02;5.22;;;16.50;99.90;;;;;;5010204;28;20398;-91
2021/09/12 02:13:16;;;;;;;8.25;5.03;;;16.50;99.90;;;;;;5010489;28;20466;-91
2021/09/12 02:15:42;;;;;;;14.38;4.90;;;16.40;99.90;;;;;;5009829;28;20030;-88
2021/09/12 02:18:08;;;;;;;8.13;4.82;;;16.40;99.90;;;;;;5010158;28;20026;-89
2021/09/12 02:20:34;;;;;;;9.63;4.78;;;16.40;99.90;;;;;;5010173;28;20037;-87
2021/09/12 02:22:59;;;;;;;6.40;3.13;;;16.30;99.90;;;;;;5010022;28;20026;-88
2021/09/12 02:25:25;;;;;;;7.75;4.53;;;16.30;99.90;;;;;;5009936;28;20501;-90
2021/09/12 02:27:51;;;;;;;12.60;6.07;;;16.20;99.90;;;;;;5009583;28;20037;-90
2021/09/12 02:30:17;;;;;;;10.77;5.78;;;16.20;99.90;;;;;;5009684;28;20128;-90
2021/09/12 02:32:42;;;;;;;11.40;5.63;;;16.10;99.90;;;;;;5009850;28;20080;-88
2021/09/12 02:35:09;;;;;;;9.93;5.57;;;16.10;99.90;;;;;;5009626;28;20041;-90
2021/09/12 02:37:35;;;;;;;10.98;5.93;;;16.00;99.90;;;;;;5009510;28;20093;-89
2021/09/12 02:40:01;;;;;;;7.53;3.97;;;16.00;99.90;;;;;;4998152;28;20131;-90
2021/09/12 02:42:26;;;;;;;7.45;5.00;;;16.00;99.90;;;;;;5009422;28;20061;-91
2021/09/12 02:44:52;;;;;;;7.55;3.95;;;15.90;99.90;;;;;;5009666;28;20038;-89
2021/09/12 02:47:19;;;;;;;6.45;4.57;;;16.00;99.90;;;;;;5025640;28;20032;-89
2021/09/12 02:49:45;;;;;;;11.00;4.63;;;15.90;99.90;;;;;;5025777;28;20057;-90
2021/09/12 02:52:11;;;;;;;5.63;3.83;;;15.90;99.90;;;;;;5009442;28;20033;-92
2021/09/12 02:54:36;;;;;;;7.75;4.07;;;15.90;99.90;;;;;;5026023;28;20026;-88
2021/09/12 02:57:02;;;;;;;8.70;4.35;;;15.80;99.90;;;;;;5009394;28;20037;-92
2021/09/12 02:59:28;;;;;;;5.03;3.20;;;15.80;99.90;;;;;;5009361;28;20025;-89
2021/09/12 03:01:54;;;;;;;5.75;3.53;;;15.80;99.90;;;;;;5009269;28;20589;-90
2021/09/12 03:04:19;;;;;;;7.93;3.75;;;15.70;99.90;;;;;;5009477;28;20050;-89
2021/09/12 03:06:45;;;;;;;5.78;3.33;;;15.70;99.90;;;;;;5009081;28;20413;-90
2021/09/12 03:09:11;;;;;;;5.80;3.25;;;15.70;99.90;;;;;;5042155;28;20042;-91
2021/09/12 03:11:36;;;;;;;4.45;2.83;;;15.60;99.90;;;;;;5009539;28;20036;-91
2021/09/12 03:14:02;;;;;;;9.93;4.35;;;15.60;99.90;;;;;;5009319;28;20037;-88
2021/09/12 03:16:28;;;;;;;6.45;3.30;;;15.50;99.90;;;;;;5008888;28;20065;-90
2021/09/12 03:18:53;;;;;;;7.70;4.20;;;15.50;99.90;;;;;;5008843;28;20034;-89
2021/09/12 03:21:19;;;;;;;7.60;3.10;;;15.50;99.90;;;;;;5008941;28;20038;-89
2021/09/12 03:23:45;;;;;;;4.10;2.35;;;15.40;99.90;;;;;;5009019;28;20076;-89
2021/09/12 03:26:11;;;;;;;5.45;3.80;;;15.40;99.90;;;;;;5025387;28;20029;-91
2021/09/12 03:28:37;;;;;;;6.80;3.40;;;15.40;99.90;;;;;;5008757;28;20026;-89
2021/09/12 03:31:03;;;;;;;5.40;2.40;;;15.30;99.90;;;;;;5009040;28;20042;-88
2021/09/12 03:33:29;;;;;;;6.60;2.40;;;15.30;99.90;;;;;;5008856;28;20041;-90
2021/09/12 03:35:54;;;;;;;10.43;4.32;;;15.30;99.90;;;;;;5025262;28;20164;-91
2021/09/12 03:38:20;;;;;;;12.77;4.68;;;15.20;99.90;;;;;;5008747;28;20041;-89
2021/09/12 03:40:46;;;;;;;8.40;3.53;;;15.10;99.90;;;;;;5008757;28;20106;-87
2021/09/12 03:43:12;;;;;;;9.10;4.03;;;15.10;99.90;;;;;;4992268;28;20110;-89
2021/09/12 03:45:38;;;;;;;7.85;3.78;;;15.10;99.90;;;;;;4994940;28;20022;-91
2021/09/12 03:48:04;;;;;;;8.68;4.10;;;15.10;99.90;;;;;;5009079;28;20061;-90
2021/09/12 03:50:30;;;;;;;5.35;2.83;;;15.00;99.90;;;;;;5026371;28;20098;-90
2021/09/12 03:52:56;;;;;;;11.48;3.95;;;15.00;99.90;;;;;;4995009;28;20029;-90
2021/09/12 03:55:22;;;;;;;8.40;3.28;;;15.00;99.90;;;;;;5012695;28;20030;-88
2021/09/12 03:57:47;;;;;;;4.85;2.42;;;15.00;99.90;;;;;;5012689;28;20508;-91
2021/09/12 04:00:13;;;;;;;8.68;3.28;;;15.00;99.90;;;;;;5012737;28;20040;-88
2021/09/12 04:02:40;;;;;;;6.57;2.92;;;14.80;99.90;;;;;;5012678;28;20033;-88
2021/09/12 04:05:06;;;;;;;5.60;2.20;;;14.90;99.90;;;;;;4996403;28;20041;-88
2021/09/12 04:07:31;;;;;;;6.20;2.80;;;14.90;99.90;;;;;;5012347;28;20037;-88
2021/09/12 04:09:57;;;;;;;5.05;2.28;;;14.80;99.90;;;;;;5012413;28;20042;-89
2021/09/12 04:12:23;;;;;;;8.27;3.75;;;14.80;99.90;;;;;;5012689;28;20056;-88
2021/09/12 04:14:48;;;;;;;5.53;2.33;;;14.70;99.90;;;;;;5012294;28;20105;-91
2021/09/12 04:17:14;;;;;;;6.00;2.92;;;14.70;99.90;;;;;;5011964;28;20057;-88
2021/09/12 04:19:40;;;;;;;8.10;2.38;;;14.70;99.90;;;;;;4996342;28;20030;-88
2021/09/12 04:22:06;;;;;;;7.93;2.10;;;14.70;99.90;;;;;;4996057;28;20037;-89
2021/09/12 04:24:32;;;;;;;6.93;2.20;;;14.70;99.90;;;;;;5012155;28;20033;-91
2021/09/12 04:26:57;;;;;;;4.80;2.22;;;14.70;99.90;;;;;;5012206;28;20026;-91
2021/09/12 04:29:23;;;;;;;6.10;1.73;;;14.60;99.90;;;;;;5011952;28;20564;-90
2021/09/12 04:31:49;;;;;;;5.18;2.05;;;14.60;99.90;;;;;;5012314;28;20038;-91
2021/09/12 04:34:15;;;;;;;7.32;2.15;;;14.60;99.90;;;;;;5012421;28;20033;-90
2021/09/12 04:36:41;;;;;;;5.40;1.98;;;14.60;99.90;;;;;;4995981;28;20064;-92
2021/09/12 04:39:07;;;;;;;7.63;2.60;;;14.60;99.90;;;;;;5004666;28;20034;-91
2021/09/12 04:41:36;;;;;;;4.47;2.47;;;14.60;99.90;;;;;;4992414;28;20066;-91
2021/09/12 04:44:01;;;;;;;7.50;2.58;;;14.50;99.90;;;;;;5008528;28;20047;-92
2021/09/12 04:46:27;;;;;;;5.85;2.33;;;14.50;99.90;;;;;;5004578;28;20394;-90
2021/09/12 04:48:53;;;;;;;5.35;3.00;;;14.40;99.90;;;;;;5011863;28;20120;-90
2021/09/12 04:51:19;;;;;;;10.00;3.63;;;14.40;99.90;;;;;;5012152;28;20073;-89
2021/09/12 04:53:44;;;;;;;5.75;2.70;;;14.30;99.90;;;;;;5011972;28;20038;-89
2021/09/12 04:56:10;;;;;;;9.35;3.75;;;14.30;99.90;;;;;;5028240;28;20042;-91
2021/09/12 04:58:35;;;;;;;6.93;3.65;;;14.30;99.90;;;;;;5028011;28;20025;-90
2021/09/12 05:01:02;;;;;;;7.40;3.80;;;14.30;99.90;;;;;;5044397;28;20065;-89
2021/09/12 05:03:28;;;;;;;8.77;4.20;;;14.20;99.90;;;;;;5011131;28;20105;-90
2021/09/12 05:05:54;;;;;;;10.52;4.80;;;14.20;99.90;;;;;;5011221;28;20034;-89
2021/09/12 05:08:20;;;;;;;10.60;5.18;;;14.20;99.90;;;;;;5011341;28;20455;-90
2021/09/12 05:10:45;;;;;;;10.85;5.25;;;14.10;99.90;;;;;;5011224;28;20063;-88
2021/09/12 05:13:11;;;;;;;8.57;4.28;;;14.10;99.90;;;;;;5011305;28;20045;-87
2021/09/12 05:15:36;;;;;;;8.00;3.88;;;14.10;99.90;;;;;;5027453;28;20044;-88
2021/09/12 05:18:02;;;;;;;11.95;6.03;;;14.00;99.90;;;;;;5011165;28;20054;-90
2021/09/12 05:20:28;;;;;;;9.13;4.75;;;14.00;99.90;;;;;;5010835;28;20033;-89
2021/09/12 05:22:53;;;;;;;11.05;4.70;;;14.00;99.90;;;;;;5010592;28;20034;-88
2021/09/12 05:25:19;;;;;;;10.52;4.97;;;14.00;99.90;;;;;;5010410;28;20046;-89
2021/09/12 05:27:45;;;;;;;6.43;5.10;;;14.00;99.90;;;;;;5010704;28;20030;-90
2021/09/12 05:30:11;;;;;;;9.45;5.25;;;14.00;99.90;;;;;;5010144;28;20324;-90
2021/09/12 05:32:37;;;;;;;8.35;5.25;;;14.00;99.90;;;;;;5010404;28;20034;-88
2021/09/12 05:35:03;;;;;;;10.50;5.80;;;14.00;99.90;;;;;;5010332;28;20041;-89
2021/09/12 05:37:28;;;;;;;10.27;5.35;;;13.90;99.90;;;;;;5010379;28;20036;-90
2021/09/12 05:39:54;;;;;;;11.02;6.22;;;14.00;99.90;;;;;;5002797;28;20054;-91
2021/09/12 05:42:20;;;;;;;10.85;5.03;;;13.90;99.90;;;;;;4974421;28;20085;-89
2021/09/12 05:44:45;;;;;;;9.10;5.82;;;13.90;99.90;;;;;;4974724;28;20042;-90
2021/09/12 05:47:11;;;;;;;9.20;5.93;;;13.90;99.90;;;;;;5023820;28;20109;-87
2021/09/12 05:49:36;;;;;;;11.48;6.28;;;13.90;99.90;;;;;;5009908;28;20038;-89
2021/09/12 05:52:02;;;;;;;10.65;6.32;;;13.90;99.90;;;;;;5010181;28;20125;-92
2021/09/12 05:54:28;;;;;;;11.35;5.45;;;14.00;99.90;;;;;;5010109;28;20387;-93
2021/09/12 05:56:54;;;;;;;11.73;6.47;;;13.90;99.90;;;;;;5010197;28;20029;-91
2021/09/12 05:59:19;;;;;;;11.68;6.07;;;14.00;99.90;;;;;;4997764;28;20506;-94
2021/09/12 06:01:45;;;;;;;11.52;5.78;;;14.10;99.90;;;;;;5009843;28;20046;-94
2021/09/12 06:04:11;;;;;;;10.85;7.43;;;14.10;99.90;;;;;;5009602;28;20033;-93
2021/09/12 06:06:36;;;;;;;11.43;7.20;;;14.10;99.90;;;;;;4993225;28;20389;-93
2021/09/12 06:09:02;;;;;;;13.70;8.15;;;14.20;99.90;;;;;;5009614;28;20045;-93
2021/09/12 06:11:28;;;;;;;13.40;7.43;;;14.20;99.90;;;;;;5009184;28;20026;-93
2021/09/12 06:13:53;;;;;;;17.38;8.00;;;14.20;99.90;;;;;;5028270;28;20034;-94
2021/09/12 06:16:19;;;;;;;10.35;6.10;;;14.20;99.90;;;;;;4989163;28;20045;-94
2021/09/12 06:18:45;;;;;;;11.65;7.72;;;14.30;99.90;;;;;;5005856;28;20062;-94
2021/09/12 06:21:10;;;;;;;13.18;6.57;;;14.30;99.90;;;;;;4990026;28;20036;-93
2021/09/12 06:23:36;;;;;;;17.00;7.30;;;14.40;99.90;;;;;;4990165;28;20027;-93
2021/09/12 06:26:02;;;;;;;10.55;7.57;;;14.40;99.90;;;;;;4989675;28;20030;-92
2021/09/12 06:28:27;;;;;;;10.63;6.57;;;14.60;99.90;;;;;;4989837;28;20057;-92
2021/09/12 06:30:53;;;;;;;11.82;7.13;;;14.60;99.90;;;;;;4989861;28;20141;-94
2021/09/12 06:33:19;;;;;;;12.23;7.43;;;14.70;99.90;;;;;;4990195;28;20026;-92
2021/09/12 06:35:45;;;;;;;10.18;6.28;;;14.70;99.90;;;;;;4989358;28;20562;-90
2021/09/12 06:38:11;;;;;;;11.43;7.38;;;14.80;99.90;;;;;;4989707;28;20034;-91
2021/09/12 06:40:36;;;;;;;13.43;7.50;;;14.80;99.90;;;;;;5008453;28;20107;-92
2021/09/12 06:43:03;;;;;;;9.75;6.25;;;14.90;99.90;;;;;;5030125;28;20060;-94
2021/09/12 06:45:30;;;;;;;12.32;6.72;;;15.00;99.90;;;;;;5023955;28;20099;-92
2021/09/12 06:47:56;;;;;;;11.93;7.10;;;15.00;99.90;;;;;;5009300;28;20220;-94
2021/09/12 06:50:22;;;;;;;12.18;7.70;;;15.10;99.90;;;;;;5009102;28;20087;-93
2021/09/12 06:52:49;;;;;;;12.65;7.72;;;15.20;99.90;;;;;;5009006;28;20037;-93
2021/09/12 06:55:15;;;;;;;11.95;7.88;;;15.20;99.90;;;;;;5008720;28;20034;-92
2021/09/12 06:57:41;;;;;;;13.05;7.05;;;15.40;99.90;;;;;;5025138;28;20026;-93
2021/09/12 07:00:10;;;;;;;12.27;7.55;;;15.50;99.90;;;;;;5009469;28;20036;-92
2021/09/12 07:02:37;;;;;;;9.90;6.78;;;15.40;99.90;;;;;;5010306;28;20029;-90
2021/09/12 07:05:05;;;;;;;14.35;7.15;;;15.40;99.90;;;;;;5026021;28;20061;-88
2021/09/12 07:07:30;;;;;;;14.65;6.68;;;15.40;99.90;;;;;;4992851;28;20072;-90
2021/09/12 07:09:56;;;;;;;12.27;5.80;;;15.60;99.90;;;;;;5008956;28;20041;-88
2021/09/12 07:12:22;;;;;;;8.60;6.25;;;15.70;99.90;;;;;;5009004;28;20029;-88
2021/09/12 07:14:47;;;;;;;13.57;6.43;;;15.80;99.90;;;;;;5008481;28;20371;-90
2021/09/12 07:17:13;;;;;;;11.75;6.00;;;15.40;99.90;;;;;;5008080;28;20117;-90
2021/09/12 07:19:39;;;;;;;8.60;4.05;;;15.50;99.90;;;;;;5008557;28;20038;-92
2021/09/12 07:22:05;;;;;;;9.82;4.45;;;15.70;99.90;;;;;;5008576;28;20097;-88
2021/09/12 07:24:32;;;;;;;9.98;4.97;;;15.80;99.90;;;;;;5008663;28;20041;-91
2021/09/12 07:26:58;;;;;;;10.52;4.97;;;16.00;99.90;;;;;;5008207;28;20064;-88
2021/09/12 07:29:23;;;;;;;6.43;3.35;;;16.10;99.90;;;;;;5008241;28;20132;-91
2021/09/12 07:31:49;;;;;;;11.60;6.28;;;16.20;99.90;;;;;;5008655;28;20049;-91
2021/09/12 07:34:15;;;;;;;11.40;5.93;;;16.00;99.90;;;;;;5008551;28;20040;-88
2021/09/12 07:36:41;;;;;;;6.78;3.75;;;16.20;99.90;;;;;;5008287;28;20061;-87
2021/09/12 07:39:06;;;;;;;8.15;4.20;;;16.50;99.90;;;;;;5004941;28;20050;-90
2021/09/12 07:41:33;;;;;;;10.43;4.50;;;16.80;99.90;;;;;;5005076;28;20064;-91
2021/09/12 07:43:59;;;;;;;8.75;3.92;;;16.90;99.90;;;;;;5005715;28;20069;-92
2021/09/12 07:46:24;;;;;;;7.78;4.75;;;17.00;99.90;;;;;;5007299;28;20113;-91
2021/09/12 07:48:59;;;;;;;7.13;2.85;;;16.80;99.90;;;;;;5007547;28;20036;-92
2021/09/12 07:51:25;;;;;;;7.38;4.10;;;16.60;99.90;;;;;;5021907;28;20037;-90
2021/09/12 07:53:51;;;;;;;6.82;3.80;;;16.70;99.90;;;;;;5007830;28;20037;-91
2021/09/12 08:23:35;;;;;;;5.63;2.58;;;18.10;99.90;;;;;;6011506;23;21091;-93
2021/09/12 08:26:13;;;;;;;12.18;6.25;;;18.20;99.90;;;;;;4921461;29;20071;-91
2021/09/12 08:29:12;;;;;;;10.10;5.20;;;17.80;99.90;;;;;;4929081;29;20036;-94
2021/09/12 08:32:00;;;;;;;8.63;4.25;;;17.70;99.90;;;;;;4926278;29;20040;-93
2021/09/12 08:34:30;;;;;;;10.60;6.10;;;17.90;99.90;;;;;;4924018;29;20055;-91
2021/09/12 08:36:56;;;;;;;9.60;5.05;;;17.60;99.90;;;;;;4908684;29;20072;-89
2021/09/12 08:39:21;;;;;;;11.13;5.40;;;18.10;99.90;;;;;;4921781;29;20040;-92
2021/09/12 08:48:06;;;;;;;5.63;2.97;;;18.80;99.90;;;;;;5280764;23;20041;-82
2021/09/12 08:50:52;;;;;;;13.10;4.97;;;18.90;99.90;;;;;;5012376;28;20042;-82
2021/09/12 08:56:07;;;;;;;5.03;2.60;;;17.50;99.90;;;;;;5009493;28;20034;-81
2021/09/12 08:59:10;;;;;;;8.38;3.38;;;17.80;99.90;;;;;;4990678;28;20105;-81
2021/09/12 09:01:55;;;;;;;9.80;3.72;;;17.80;99.90;;;;;;4981742;28;20035;-81
2021/09/12 09:05:03;;;;;;;;;;;17.90;99.90;;;;;;4985846;28;20046;-81
2021/09/12 09:11:16;;;;;;;;;;;;;;;;;;;;;
2021/09/12 09:14:21;;;;;;;13.82;4.38;;;18.20;99.90;;;;;;4987208;28;20121;-80
2021/09/12 09:17:21;;;;;;;9.65;3.55;;;18.60;99.90;;;;;;4966280;28;20069;-80
2021/09/12 09:20:11;;;;;;;9.50;4.70;;;18.40;99.90;;;;;;4955550;28;20030;-79
2021/09/12 09:23:21;;;;;;;9.80;4.43;;;17.60;99.90;;;;;;4953732;28;20058;-81
2021/09/12 09:27:29;;;;;;;;;;;;;;;;;;;;;
2021/09/12 09:30:54;;;;;;;;;;;;;;;;;;;;;
2021/09/12 09:34:17;;;;;;;6.37;2.83;;;18.50;99.90;;;;;;4950062;29;20031;-81
2021/09/12 09:38:23;;;;;;;5.18;1.50;;;19.30;99.90;;;;;;4935767;29;20179;-81
2021/09/12 09:41:47;;;;;;;;;;;;;;;;;;;;;
2021/09/12 09:48:08;;;;;;;;;;;;;;;;;;;;;
2021/09/12 09:58:04;;;;;;;10.13;2.35;;;18.00;99.90;;;;;;4925565;29;20165;-81
2021/09/12 10:00:58;;;;;;;7.00;1.98;;;17.80;99.90;;;;;;4914782;29;20059;-80
2021/09/12 10:03:41;;;;;;;7.53;2.15;;;18.10;99.90;;;;;;4946693;29;20023;-80
2021/09/12 10:07:06;;;;;;;;;;;;;;;;;;;;;
2021/09/12 10:10:56;;;;;;;8.13;2.85;;;18.30;99.90;;;;;;5007415;28;20073;-81
2021/09/12 10:14:13;;;;;;;5.85;2.40;;;18.50;99.90;;;;;;4925244;29;20118;-80
2021/09/12 10:17:42;;;;;;;;;;;;;;;;;;;;;
2021/09/12 10:21:01;;;;;;;5.20;2.72;;;18.60;99.90;;;;;;4941006;29;20035;-81
2021/09/12 10:24:52;;;;;;;;;;;;;;;;;;;;;
2021/09/12 10:31:37;;;;;;;5.53;2.20;;;18.20;99.90;;;;;;4839308;29;20052;-82
2021/09/12 10:34:21;;;;;;;5.63;2.17;;;18.60;99.90;;;;;;4835401;29;20583;-81
2021/09/12 10:37:48;;;;;;;6.35;1.50;;;18.70;99.90;;;;;;4836410;29;20050;-81
2021/09/12 10:40:58;;;;;;;2.83;1.10;;;19.10;99.90;;;;;;4833608;29;20134;-81
2021/09/12 10:44:24;;;;;;;4.78;1.45;;;19.20;99.90;;;;;;4847439;29;20045;-81
2021/09/12 10:47:24;;;;;;;4.67;2.53;;;19.30;99.90;;;;;;4799873;29;20118;-80
2021/09/12 10:54:49;;;;;;;;;;;;;;;;;;;;;
2021/09/12 11:02:07;;;;;;;8.68;3.20;;;18.70;99.90;;;;;;4839617;29;20106;-81
2021/09/12 11:09:20;;;;;;;4.22;1.70;;;19.40;99.90;;;;;;4900943;29;20035;-82
2021/09/12 11:12:49;;;;;;;;;;;;;;;;;;;;;
2021/09/12 11:24:07;;;;;;;;;;;;;;;;;;;;;
2021/09/12 11:27:21;;;;;;;4.32;1.38;;;19.60;99.90;;;;;;4925326;29;20040;-81
2021/09/12 11:34:11;;;;;;;4.40;1.52;;;19.90;99.90;;;;;;4921488;29;20035;-81
2021/09/12 11:41:36;;;;;;;5.82;3.10;;;19.70;99.90;;;;;;4888362;29;20093;-82
2021/09/12 12:18:12;;;;;;;13.43;6.90;;;19.50;99.90;;;;;;4780322;30;20063;-83
2021/09/12 12:33:28;;;;;;;15.30;10.18;;;21.10;99.90;;;;;;4694204;30;20045;-84
2021/09/12 12:40:39;;;;;;;14.93;9.60;;;19.70;99.90;;;;;;4693106;30;20124;-81
2021/09/12 12:51:18;;;;;;;;;;;;;;;;;;;;;
2021/09/12 13:02:18;;;;;;;16.55;10.15;;;21.10;99.90;;;;;;4783569;30;20060;-83
2021/09/12 13:05:53;;;;;;;16.80;10.50;;;20.80;99.90;;;;;;4783457;29;20130;-83
2021/09/12 13:09:26;;;;;;;17.88;9.18;;;20.30;99.90;;;;;;4806579;29;20420;-84
2021/09/12 13:13:03;;;;;;;;;;;;;;;;;;;;;
2021/09/12 13:28:28;;;;;;;;;;;;;;;;;;;;;
2021/09/12 13:32:07;;;;;;;14.77;11.00;;;20.70;99.90;;;;;;4867415;29;20042;-83
2021/09/12 13:35:55;;;;;;;13.75;10.32;;;21.00;99.90;;;;;;4866231;29;20044;-84
2021/09/12 13:39:43;;;;;;;;;;;;;;;;;;;;;
2021/09/12 14:50:54;;;;;;;14.35;9.10;;;20.50;99.90;;;;;;4686002;30;20190;-83
2021/09/12 14:54:08;;;;;;;11.40;8.85;;;20.50;99.90;;;;;;4729542;30;20164;-81
2021/09/12 14:56:54;;;;;;;12.60;8.60;;;20.50;99.90;;;;;;4723902;30;20045;-81
2021/09/12 14:59:34;;;;;;;14.73;10.50;;;20.70;99.90;;;;;;4700206;30;20312;-80
2021/09/12 15:02:58;;;;;;;10.87;8.20;;;20.70;99.90;;;;;;4715695;30;20037;-80
2021/09/12 15:06:19;;;;;;;;;;;;;;;;;;;;;
2021/09/12 15:09:29;;;;;;;13.18;8.73;;;20.50;99.90;;;;;;4731426;30;20057;-80
2021/09/12 15:17:33;;;;;;;14.52;10.82;;;20.80;99.90;;;;;;4740914;30;20096;-80
2021/09/12 15:37:20;;;;;;;11.55;9.57;;;20.10;99.90;;;;;;4743671;30;20110;-81
2021/09/12 15:41:13;;;;;;;16.00;10.85;;;20.10;99.90;;;;;;4720959;30;20037;-82
2021/09/12 15:56:46;;;;;;;13.15;9.52;;;20.30;99.90;;;;;;4683133;30;20089;-83
2021/09/12 16:04:12;;;;;;;12.32;9.07;;;20.10;99.90;;;;;;4692265;30;20053;-82
2021/09/12 16:12:54;;;;;;;;;;;;;;;;;;;;;
2021/09/12 17:12:41;;;;;;;;;;;;;;;;;;;;;
2021/09/12 17:19:08;;;;;;;6.03;4.22;;;18.80;99.90;;;;;;4922896;29;20059;-81
2021/09/12 17:22:57;;;;;;;;;;;;;;;;;;;;;
2021/09/12 17:33:38;;;;;;;7.68;4.43;;;18.60;99.90;;;;;;4794315;29;20068;-82
2021/09/12 17:44:53;;;;;;;;;;;;;;;;;;;;;
2021/09/12 17:48:00;;;;;;;7.13;5.20;;;18.60;99.90;;;;;;4745112;30;20127;-84
2021/09/12 17:54:30;;;;;;;;;;;;;;;;;;;;;
2021/09/12 17:58:14;;;;;;;4.80;2.80;;;18.40;99.90;;;;;;4710569;30;19915;-82
2021/09/12 18:01:52;;;;;;;;;;;;;;;;;;;;;
2021/09/12 18:13:11;;;;;;;2.63;1.20;;;18.00;99.90;;;;;;4851891;29;20105;-86
2021/09/12 18:15:59;;;;;;;3.50;1.00;;;17.80;99.90;;;;;;4842379;29;20041;-83
2021/09/12 18:18:54;;;;;;;3.15;0.80;;;17.70;99.90;;;;;;4902780;29;20081;-83
2021/09/12 18:22:30;;;;;;;4.28;0.80;;;17.60;99.90;;;;;;4883933;29;20077;-83
2021/09/12 18:29:35;;;;;;;2.58;0.50;;;17.40;99.90;;;;;;4852721;29;20141;-81
2021/09/12 18:33:05;;;;;;;2.13;0.43;;;17.30;99.90;;;;;;4857944;29;20046;-82
2021/09/12 18:35:56;;;;;;;1.13;0.40;;;17.20;99.90;;;;;;4831970;29;20042;-82
2021/09/12 18:39:37;;;;;;;;;;;;;;;;;;;;;
2021/09/12 18:41:56;;;;;;;1.30;0.40;;;17.10;99.90;;;;;;4816950;29;20046;-82
2021/09/12 18:45:05;;;;;;;;;;;;;;;;;;;;;
2021/09/12 18:47:49;;;;;;;;;;;;;;;;;;;;;
2021/09/12 18:50:54;;;;;;;1.58;0.40;;;16.90;99.90;;;;;;4819506;29;20077;-83
2021/09/12 18:54:16;;;;;;;2.30;0.40;;;16.80;99.90;;;;;;4832316;29;20062;-83
2021/09/12 18:57:25;;;;;;;2.03;0.40;;;16.80;99.90;;;;;;4827650;29;20073;-83
2021/09/12 19:09:35;;;;;;;5.50;0.40;;;16.50;99.90;;;;;;4839508;29;20065;-85
2021/09/12 19:13:42;;;;;;;;;;;;;;;;;;;;;
2021/09/12 19:16:42;;;;;;;0.98;0.40;;;16.30;99.90;;;;;;4874107;29;20085;-82
2021/09/12 19:19:38;;;;;;;;;;;;;;;;;;;;;
2021/09/12 19:23:15;;;;;;;;;;;;;;;;;;;;;
2021/09/12 19:26:18;;;;;;;1.30;0.40;;;16.00;99.90;;;;;;4850739;29;20072;-82
2021/09/12 19:39:38;;;;;;;1.45;0.30;;;16.00;99.90;;;;;;4889437;29;20628;-83
2021/09/12 19:42:24;;;;;;;0.60;0.30;;;15.90;99.90;;;;;;4967125;29;20038;-83
2021/09/12 19:45:08;;;;;;;2.08;0.20;;;15.90;99.90;;;;;;4999108;23;20055;-82
2021/09/12 19:48:28;;;;;;;;;;;;;;;;;;;;;
2021/09/12 19:51:23;;;;;;;1.10;0.40;;;15.70;99.90;;;;;;5003045;28;20042;-82
2021/09/12 19:54:58;;;;;;;;;;;;;;;;;;;;;
2021/09/12 20:01:43;;;;;;;1.55;0.30;;;15.20;99.90;;;;;;4886902;29;20044;-82
2021/09/12 20:04:08;;;;;;;0.70;0.30;;;15.00;99.90;;;;;;4868490;29;20136;-83
2021/09/12 20:06:34;;;;;;;1.23;0.40;;;15.00;99.90;;;;;;4866171;29;20033;-83
2021/09/12 20:09:00;;;;;;;0.93;0.30;;;14.90;99.90;;;;;;4855759;29;20044;-81
2021/09/12 20:11:25;;;;;;;1.10;0.50;;;14.80;99.90;;;;;;4879223;29;20049;-81
2021/09/12 20:13:51;;;;;;;1.27;0.40;;;14.80;99.90;;;;;;4865317;29;20029;-81
2021/09/12 20:16:17;;;;;;;0.65;0.30;;;14.70;99.90;;;;;;4864703;29;20091;-81
2021/09/12 20:18:47;;;;;;;0.88;0.30;;;14.60;99.90;;;;;;4877561;29;20041;-81
2021/09/12 20:21:14;;;;;;;;;;;14.50;99.90;;;;;;4881635;29;20045;-82
2021/09/12 20:23:40;;;;;;;0.73;0.47;;;14.50;99.90;;;;;;4877219;29;19923;-81
2021/09/12 20:26:05;;;;;;;1.92;0.40;;;14.50;99.90;;;;;;4894984;29;20045;-81
2021/09/12 20:28:31;;;;;;;1.40;0.40;;;14.40;99.90;;;;;;4943385;29;20056;-81
2021/09/12 20:30:56;;;;;;;1.50;0.30;;;14.30;99.90;;;;;;4935738;29;20047;-83
2021/09/12 20:33:22;;;;;;;1.50;0.40;;;14.40;99.90;;;;;;4929177;29;20122;-82
2021/09/12 20:35:48;;;;;;;0.90;0.32;;;14.40;99.90;;;;;;4930631;29;20039;-82
2021/09/12 20:38:13;;;;;;;1.27;0.40;;;14.30;99.90;;;;;;5008409;28;20035;-81
2021/09/12 20:40:39;;;;;;;1.10;0.40;;;14.20;99.90;;;;;;5001085;28;20026;-82
2021/09/12 20:43:04;;;;;;;1.63;0.40;;;14.20;99.90;;;;;;5000518;28;20523;-82
2021/09/12 20:45:30;;;;;;;1.00;0.40;;;14.30;99.90;;;;;;4996771;28;20038;-81
2021/09/12 20:47:56;;;;;;;1.10;0.40;;;14.20;99.90;;;;;;4997066;28;20057;-82
2021/09/12 20:50:22;;;;;;;1.67;0.50;;;14.20;99.90;;;;;;5008931;28;20042;-83
2021/09/12 20:52:47;;;;;;;2.65;1.02;;;14.20;99.90;;;;;;4999263;28;20077;-81
2021/09/12 20:55:13;;;;;;;3.47;0.40;;;14.10;99.90;;;;;;4979629;28;20035;-82